sensor_id;sensor_type;location;lat;lon;timestamp;pressure;altitude;pressure_sealevel;temperature;humidity
39443;BME280;25147;52.142;9.960;2023-08-24T00:00:18;100862.69;;;16.49;100.00
39443;BME280;25147;52.142;9.960;2023-08-24T00:02:45;100849.72;;;16.41;100.00
39443;BME280;25147;52.142;9.960;2023-08-24T00:05:12;100716.75;;;15.60;100.00
39443;BME280;25147;52.142;9.960;2023-08-24T00:07:39;100633.94;;;15.10;100.00
39443;BME280;25147;52.142;9.960;2023-08-24T00:10:08;100878.59;;;16.47;100.00
39443;BME280;25147;52.142;9.960;2023-08-24T00:12:35;100725.31;;;15.67;100.00
39443;BME280;25147;52.142;9.960;2023-08-24T00:15:03;100864.44;;;16.48;100.00
39443;BME280;25147;52.142;9.960;2023-08-24T00:17:30;100842.13;;;16.30;100.00
39443;BME280;25147;52.142;9.960;2023-08-24T00:19:57;100847.13;;;16.39;100.00
39443;BME280;25147;52.142;9.960;2023-08-24T00:22:24;100609.09;;;14.89;100.00
39443;BME280;25147;52.142;9.960;2023-08-24T00:24:51;100794.50;;;16.07;100.00
39443;BME280;25147;52.142;9.960;2023-08-24T00:27:19;100602.88;;;14.91;100.00
39443;BME280;25147;52.142;9.960;2023-08-24T00:29:46;100817.25;;;16.11;100.00
39443;BME280;25147;52.142;9.960;2023-08-24T00:32:13;100816.28;;;16.13;100.00
39443;BME280;25147;52.142;9.960;2023-08-24T00:34:40;100658.97;;;15.24;100.00
39443;BME280;25147;52.142;9.960;2023-08-24T00:37:07;100723.69;;;15.63;100.00
39443;BME280;25147;52.142;9.960;2023-08-24T00:39:35;100590.13;;;14.77;100.00
39443;BME280;25147;52.142;9.960;2023-08-24T00:42:03;100783.81;;;15.83;100.00
39443;BME280;25147;52.142;9.960;2023-08-24T00:44:33;100846.34;;;16.36;100.00
39443;BME280;25147;52.142;9.960;2023-08-24T00:47:00;100626.19;;;15.05;100.00
39443;BME280;25147;52.142;9.960;2023-08-24T00:49:28;100682.41;;;15.34;100.00
39443;BME280;25147;52.142;9.960;2023-08-24T00:51:55;100655.00;;;15.11;100.00
39443;BME280;25147;52.142;9.960;2023-08-24T00:54:23;100841.31;;;16.28;100.00
39443;BME280;25147;52.142;9.960;2023-08-24T00:56:50;100719.31;;;15.35;100.00
39443;BME280;25147;52.142;9.960;2023-08-24T00:59:18;100771.88;;;15.70;100.00
39443;BME280;25147;52.142;9.960;2023-08-24T01:01:48;100674.03;;;15.21;100.00
39443;BME280;25147;52.142;9.960;2023-08-24T01:04:17;100873.13;;;16.25;100.00
39443;BME280;25147;52.142;9.960;2023-08-24T01:06:45;100845.13;;;16.19;100.00
39443;BME280;25147;52.142;9.960;2023-08-24T01:09:12;100678.56;;;15.16;100.00
39443;BME280;25147;52.142;9.960;2023-08-24T01:11:45;100689.63;;;15.29;100.00
39443;BME280;25147;52.142;9.960;2023-08-24T01:14:22;100736.06;;;15.61;100.00
39443;BME280;25147;52.142;9.960;2023-08-24T01:16:52;100643.78;;;15.04;100.00
39443;BME280;25147;52.142;9.960;2023-08-24T01:19:34;100771.88;;;15.70;100.00
39443;BME280;25147;52.142;9.960;2023-08-24T01:22:07;100844.22;;;16.20;100.00
39443;BME280;25147;52.142;9.960;2023-08-24T01:24:40;100741.50;;;15.56;100.00
39443;BME280;25147;52.142;9.960;2023-08-24T01:27:14;100795.25;;;15.83;100.00
39443;BME280;25147;52.142;9.960;2023-08-24T01:29:41;100844.09;;;15.97;100.00
39443;BME280;25147;52.142;9.960;2023-08-24T01:32:10;100848.94;;;16.11;100.00
39443;BME280;25147;52.142;9.960;2023-08-24T01:34:37;100597.81;;;14.55;100.00
39443;BME280;25147;52.142;9.960;2023-08-24T01:37:05;100577.41;;;14.31;100.00
39443;BME280;25147;52.142;9.960;2023-08-24T01:39:42;100696.44;;;15.06;100.00
39443;BME280;25147;52.142;9.960;2023-08-24T01:42:15;100842.28;;;15.99;100.00
39443;BME280;25147;52.142;9.960;2023-08-24T01:44:48;100844.09;;;15.97;100.00
39443;BME280;25147;52.142;9.960;2023-08-24T01:47:17;100666.53;;;14.77;100.00
39443;BME280;25147;52.142;9.960;2023-08-24T01:49:45;100584.88;;;14.46;100.00
39443;BME280;25147;52.142;9.960;2023-08-24T01:52:12;100584.03;;;14.45;100.00
39443;BME280;25147;52.142;9.960;2023-08-24T01:54:40;100596.34;;;14.45;100.00
39443;BME280;25147;52.142;9.960;2023-08-24T01:57:08;100830.94;;;15.95;100.00
39443;BME280;25147;52.142;9.960;2023-08-24T01:59:37;100647.78;;;14.88;100.00
39443;BME280;25147;52.142;9.960;2023-08-24T02:02:04;100552.88;;;14.30;100.00
39443;BME280;25147;52.142;9.960;2023-08-24T02:04:32;100570.97;;;14.41;100.00
39443;BME280;25147;52.142;9.960;2023-08-24T02:06:59;100845.09;;;15.93;100.00
39443;BME280;25147;52.142;9.960;2023-08-24T02:09:27;100590.97;;;14.48;100.00
39443;BME280;25147;52.142;9.960;2023-08-24T02:11:54;100568.22;;;14.45;100.00
39443;BME280;25147;52.142;9.960;2023-08-24T02:14:22;100569.00;;;14.49;100.00
39443;BME280;25147;52.142;9.960;2023-08-24T02:16:51;100529.38;;;14.22;100.00
39443;BME280;25147;52.142;9.960;2023-08-24T02:19:24;100572.63;;;14.45;100.00
39443;BME280;25147;52.142;9.960;2023-08-24T02:21:51;100533.66;;;14.27;100.00
39443;BME280;25147;52.142;9.960;2023-08-24T02:24:19;100828.06;;;16.03;100.00
39443;BME280;25147;52.142;9.960;2023-08-24T02:26:46;100824.56;;;16.02;100.00
39443;BME280;25147;52.142;9.960;2023-08-24T02:29:12;100782.25;;;15.77;100.00
39443;BME280;25147;52.142;9.960;2023-08-24T02:31:39;100656.34;;;14.96;100.00
39443;BME280;25147;52.142;9.960;2023-08-24T02:34:08;100684.81;;;15.13;100.00
39443;BME280;25147;52.142;9.960;2023-08-24T02:36:35;100552.00;;;14.30;100.00
39443;BME280;25147;52.142;9.960;2023-08-24T02:39:02;100552.78;;;14.33;100.00
39443;BME280;25147;52.142;9.960;2023-08-24T02:41:30;100584.88;;;14.46;100.00
39443;BME280;25147;52.142;9.960;2023-08-24T02:43:57;100671.22;;;14.97;100.00
39443;BME280;25147;52.142;9.960;2023-08-24T02:46:24;100680.06;;;14.96;100.00
39443;BME280;25147;52.142;9.960;2023-08-24T02:48:51;100830.56;;;15.79;100.00
39443;BME280;25147;52.142;9.960;2023-08-24T02:51:21;100661.00;;;14.87;100.00
39443;BME280;25147;52.142;9.960;2023-08-24T02:53:48;100696.91;;;14.91;100.00
39443;BME280;25147;52.142;9.960;2023-08-24T02:56:16;100794.13;;;15.61;100.00
39443;BME280;25147;52.142;9.960;2023-08-24T02:58:43;100531.09;;;13.94;100.00
39443;BME280;25147;52.142;9.960;2023-08-24T03:01:10;100498.53;;;13.67;100.00
39443;BME280;25147;52.142;9.960;2023-08-24T03:03:37;100681.19;;;14.88;100.00
39443;BME280;25147;52.142;9.960;2023-08-24T03:06:06;100718.25;;;15.13;100.00
39443;BME280;25147;52.142;9.960;2023-08-24T03:08:36;100690.88;;;14.87;100.00
39443;BME280;25147;52.142;9.960;2023-08-24T03:11:03;100783.28;;;15.42;100.00
39443;BME280;25147;52.142;9.960;2023-08-24T03:13:30;100712.59;;;14.95;100.00
39443;BME280;25147;52.142;9.960;2023-08-24T03:15:57;100606.69;;;14.20;100.00
39443;BME280;25147;52.142;9.960;2023-08-24T03:18:29;100682.38;;;14.77;100.00
39443;BME280;25147;52.142;9.960;2023-08-24T03:20:56;100816.81;;;15.38;100.00
39443;BME280;25147;52.142;9.960;2023-08-24T03:23:23;100725.13;;;14.87;100.00
39443;BME280;25147;52.142;9.960;2023-08-24T03:25:51;100801.41;;;15.24;100.00
39443;BME280;25147;52.142;9.960;2023-08-24T03:28:18;100804.09;;;15.23;100.00
39443;BME280;25147;52.142;9.960;2023-08-24T03:30:46;100615.88;;;14.07;100.00
39443;BME280;25147;52.142;9.960;2023-08-24T03:33:13;100569.78;;;13.57;100.00
39443;BME280;25147;52.142;9.960;2023-08-24T03:35:42;100614.91;;;13.76;100.00
39443;BME280;25147;52.142;9.960;2023-08-24T03:38:09;100624.03;;;13.96;100.00
39443;BME280;25147;52.142;9.960;2023-08-24T03:40:36;100626.81;;;13.91;100.00
39443;BME280;25147;52.142;9.960;2023-08-24T03:43:04;100531.91;;;13.32;100.00
39443;BME280;25147;52.142;9.960;2023-08-24T03:45:31;100781.44;;;14.84;100.00
39443;BME280;25147;52.142;9.960;2023-08-24T03:47:58;100659.16;;;13.95;100.00
39443;BME280;25147;52.142;9.960;2023-08-24T03:50:25;100637.25;;;13.94;100.00
39443;BME280;25147;52.142;9.960;2023-08-24T03:52:53;100670.94;;;14.14;100.00
39443;BME280;25147;52.142;9.960;2023-08-24T03:55:21;100791.63;;;14.98;100.00
39443;BME280;25147;52.142;9.960;2023-08-24T03:57:48;100519.72;;;13.26;100.00
39443;BME280;25147;52.142;9.960;2023-08-24T04:00:17;100612.63;;;13.97;100.00
39443;BME280;25147;52.142;9.960;2023-08-24T04:02:44;100501.28;;;13.28;100.00
39443;BME280;25147;52.142;9.960;2023-08-24T04:05:12;100820.44;;;15.04;100.00
39443;BME280;25147;52.142;9.960;2023-08-24T04:07:39;100605.09;;;13.83;100.00
39443;BME280;25147;52.142;9.960;2023-08-24T04:10:08;100798.31;;;15.10;100.00
39443;BME280;25147;52.142;9.960;2023-08-24T04:12:35;100502.16;;;13.30;100.00
39443;BME280;25147;52.142;9.960;2023-08-24T04:15:02;100710.31;;;14.52;100.00
39443;BME280;25147;52.142;9.960;2023-08-24T04:17:33;100573.84;;;13.71;100.00
39443;BME280;25147;52.142;9.960;2023-08-24T04:20:07;100500.00;;;13.10;100.00
39443;BME280;25147;52.142;9.960;2023-08-24T04:22:43;100520.66;;;13.25;100.00
39443;BME280;25147;52.142;9.960;2023-08-24T04:25:13;100643.78;;;14.12;100.00
39443;BME280;25147;52.142;9.960;2023-08-24T04:27:44;100653.31;;;14.16;100.00
39443;BME280;25147;52.142;9.960;2023-08-24T04:30:11;100821.09;;;15.13;100.00
39443;BME280;25147;52.142;9.960;2023-08-24T04:32:40;100594.94;;;13.68;100.00
39443;BME280;25147;52.142;9.960;2023-08-24T04:35:08;100780.84;;;14.75;100.00
39443;BME280;25147;52.142;9.960;2023-08-24T04:37:35;100829.91;;;15.12;100.00
39443;BME280;25147;52.142;9.960;2023-08-24T04:40:03;100792.34;;;14.72;100.00
39443;BME280;25147;52.142;9.960;2023-08-24T04:42:35;100814.19;;;15.09;100.00
39443;BME280;25147;52.142;9.960;2023-08-24T04:45:03;100735.84;;;14.50;100.00
39443;BME280;25147;52.142;9.960;2023-08-24T04:47:29;100818.31;;;15.17;100.00
39443;BME280;25147;52.142;9.960;2023-08-24T04:49:58;100828.88;;;15.17;100.00
39443;BME280;25147;52.142;9.960;2023-08-24T04:52:25;100729.31;;;14.63;100.00
39443;BME280;25147;52.142;9.960;2023-08-24T04:54:52;100819.28;;;15.15;100.00
39443;BME280;25147;52.142;9.960;2023-08-24T04:57:19;100731.94;;;14.64;100.00
39443;BME280;25147;52.142;9.960;2023-08-24T04:59:46;100681.78;;;14.35;100.00
39443;BME280;25147;52.142;9.960;2023-08-24T05:02:12;100836.53;;;15.27;100.00
39443;BME280;25147;52.142;9.960;2023-08-24T05:04:39;100801.81;;;15.11;100.00
39443;BME280;25147;52.142;9.960;2023-08-24T05:07:07;100825.78;;;15.33;100.00
39443;BME280;25147;52.142;9.960;2023-08-24T05:09:35;100604.59;;;14.01;100.00
39443;BME280;25147;52.142;9.960;2023-08-24T05:12:02;100743.34;;;14.96;100.00
39443;BME280;25147;52.142;9.960;2023-08-24T05:14:32;100669.78;;;14.57;100.00
39443;BME280;25147;52.142;9.960;2023-08-24T05:17:00;100642.63;;;14.54;100.00
39443;BME280;25147;52.142;9.960;2023-08-24T05:19:26;100817.13;;;15.57;100.00
39443;BME280;25147;52.142;9.960;2023-08-24T05:21:53;100674.09;;;14.90;100.00
39443;BME280;25147;52.142;9.960;2023-08-24T05:24:22;100767.19;;;15.51;100.00
39443;BME280;25147;52.142;9.960;2023-08-24T05:26:49;100578.88;;;14.41;100.00
39443;BME280;25147;52.142;9.960;2023-08-24T05:29:15;100721.09;;;15.35;100.00
39443;BME280;25147;52.142;9.960;2023-08-24T05:31:42;100796.88;;;15.88;100.00
39443;BME280;25147;52.142;9.960;2023-08-24T05:34:09;100771.81;;;15.73;100.00
39443;BME280;25147;52.142;9.960;2023-08-24T05:36:36;100833.34;;;16.03;100.00
39443;BME280;25147;52.142;9.960;2023-08-24T05:39:03;100641.41;;;14.95;100.00
39443;BME280;25147;52.142;9.960;2023-08-24T05:41:32;100816.72;;;15.99;100.00
39443;BME280;25147;52.142;9.960;2023-08-24T05:43:59;100811.59;;;15.95;100.00
39443;BME280;25147;52.142;9.960;2023-08-24T05:46:26;100734.75;;;15.48;100.00
39443;BME280;25147;52.142;9.960;2023-08-24T05:52:34;100597.53;;;14.64;100.00
39443;BME280;25147;52.142;9.960;2023-08-24T05:55:01;100845.16;;;16.18;100.00
39443;BME280;25147;52.142;9.960;2023-08-24T05:57:34;100821.72;;;16.09;100.00
39443;BME280;25147;52.142;9.960;2023-08-24T06:00:01;100779.03;;;15.94;100.00
39443;BME280;25147;52.142;9.960;2023-08-24T06:02:29;100811.59;;;16.21;100.00
39443;BME280;25147;52.142;9.960;2023-08-24T06:04:57;100726.44;;;15.60;100.00
39443;BME280;25147;52.142;9.960;2023-08-24T06:07:24;100512.34;;;14.34;100.00
39443;BME280;25147;52.142;9.960;2023-08-24T06:09:51;100562.00;;;14.78;100.00
39443;BME280;25147;52.142;9.960;2023-08-24T06:12:19;100789.78;;;16.16;100.00
39443;BME280;25147;52.142;9.960;2023-08-24T06:15:00;100830.25;;;16.43;100.00
39443;BME280;25147;52.142;9.960;2023-08-24T06:17:30;100824.69;;;16.51;100.00
39443;BME280;25147;52.142;9.960;2023-08-24T06:19:57;100543.88;;;14.95;100.00
39443;BME280;25147;52.142;9.960;2023-08-24T06:22:25;100831.94;;;16.71;100.00
39443;BME280;25147;52.142;9.960;2023-08-24T06:24:52;100716.66;;;16.17;100.00
39443;BME280;25147;52.142;9.960;2023-08-24T06:27:20;100541.59;;;15.11;100.00
39443;BME280;25147;52.142;9.960;2023-08-24T06:29:50;100822.50;;;16.89;100.00
39443;BME280;25147;52.142;9.960;2023-08-24T06:32:21;100587.25;;;15.65;100.00
39443;BME280;25147;52.142;9.960;2023-08-24T06:34:49;100782.47;;;17.00;100.00
39443;BME280;25147;52.142;9.960;2023-08-24T06:37:17;100667.69;;;16.32;100.00
39443;BME280;25147;52.142;9.960;2023-08-24T06:39:44;100678.00;;;16.39;100.00
39443;BME280;25147;52.142;9.960;2023-08-24T06:42:11;100687.75;;;16.37;100.00
39443;BME280;25147;52.142;9.960;2023-08-24T06:44:43;100656.09;;;16.36;100.00
39443;BME280;25147;52.142;9.960;2023-08-24T06:47:15;100511.50;;;15.43;100.00
39443;BME280;25147;52.142;9.960;2023-08-24T06:49:45;100520.09;;;15.49;100.00
39443;BME280;25147;52.142;9.960;2023-08-24T06:52:12;100710.84;;;16.81;100.00
39443;BME280;25147;52.142;9.960;2023-08-24T06:54:39;100660.22;;;16.44;100.00
39443;BME280;25147;52.142;9.960;2023-08-24T06:57:08;100746.84;;;16.85;100.00
39443;BME280;25147;52.142;9.960;2023-08-24T06:59:35;100685.28;;;16.56;100.00
39443;BME280;25147;52.142;9.960;2023-08-24T07:02:02;100516.97;;;15.62;100.00
39443;BME280;25147;52.142;9.960;2023-08-24T07:04:30;100750.00;;;16.95;100.00
39443;BME280;25147;52.142;9.960;2023-08-24T07:06:58;100668.47;;;16.59;100.00
39443;BME280;25147;52.142;9.960;2023-08-24T07:09:26;100595.09;;;16.18;100.00
39443;BME280;25147;52.142;9.960;2023-08-24T07:11:55;100554.69;;;15.91;100.00
39443;BME280;25147;52.142;9.960;2023-08-24T07:14:23;100766.31;;;17.30;100.00
39443;BME280;25147;52.142;9.960;2023-08-24T07:16:50;100777.63;;;17.35;100.00
39443;BME280;25147;52.142;9.960;2023-08-24T07:19:17;100715.69;;;17.17;100.00
39443;BME280;25147;52.142;9.960;2023-08-24T07:21:44;100709.53;;;17.16;100.00
39443;BME280;25147;52.142;9.960;2023-08-24T07:24:13;100751.47;;;17.49;100.00
39443;BME280;25147;52.142;9.960;2023-08-24T07:26:40;100754.91;;;17.51;100.00
39443;BME280;25147;52.142;9.960;2023-08-24T07:29:07;100726.28;;;17.39;100.00
39443;BME280;25147;52.142;9.960;2023-08-24T07:31:35;100679.25;;;17.23;100.00
39443;BME280;25147;52.142;9.960;2023-08-24T07:34:05;100643.63;;;17.10;100.00
39443;BME280;25147;52.142;9.960;2023-08-24T07:36:32;100537.84;;;16.42;100.00
39443;BME280;25147;52.142;9.960;2023-08-24T07:38:59;100669.84;;;17.38;100.00
39443;BME280;25147;52.142;9.960;2023-08-24T07:41:30;100727.81;;;17.89;100.00
39443;BME280;25147;52.142;9.960;2023-08-24T07:43:58;100422.84;;;16.10;100.00
39443;BME280;25147;52.142;9.960;2023-08-24T07:46:25;100723.75;;;18.02;100.00
39443;BME280;25147;52.142;9.960;2023-08-24T07:48:52;100732.03;;;18.15;100.00
39443;BME280;25147;52.142;9.960;2023-08-24T07:51:21;100654.91;;;18.00;100.00
39443;BME280;25147;52.142;9.960;2023-08-24T07:53:48;100648.28;;;18.11;100.00
39443;BME280;25147;52.142;9.960;2023-08-24T07:56:17;100720.41;;;18.79;100.00
39443;BME280;25147;52.142;9.960;2023-08-24T07:58:45;100719.69;;;18.94;100.00
39443;BME280;25147;52.142;9.960;2023-08-24T08:01:17;100625.88;;;18.57;100.00
39443;BME280;25147;52.142;9.960;2023-08-24T08:03:47;100702.91;;;19.13;100.00
39443;BME280;25147;52.142;9.960;2023-08-24T08:06:14;100514.59;;;18.18;100.00
39443;BME280;25147;52.142;9.960;2023-08-24T08:08:41;100724.13;;;19.51;100.00
39443;BME280;25147;52.142;9.960;2023-08-24T08:11:10;100461.25;;;18.07;100.00
39443;BME280;25147;52.142;9.960;2023-08-24T08:13:37;100485.81;;;18.29;100.00
39443;BME280;25147;52.142;9.960;2023-08-24T08:16:06;100478.63;;;18.31;100.00
39443;BME280;25147;52.142;9.960;2023-08-24T08:18:35;100558.94;;;18.90;100.00
39443;BME280;25147;52.142;9.960;2023-08-24T08:21:08;100601.22;;;19.12;100.00
39443;BME280;25147;52.142;9.960;2023-08-24T08:23:36;100642.81;;;19.48;100.00
39443;BME280;25147;52.142;9.960;2023-08-24T08:26:03;100659.59;;;19.66;100.00
39443;BME280;25147;52.142;9.960;2023-08-24T08:28:29;100547.91;;;18.80;100.00
39443;BME280;25147;52.142;9.960;2023-08-24T08:30:59;100608.72;;;19.21;100.00
39443;BME280;25147;52.142;9.960;2023-08-24T08:33:27;100702.41;;;19.79;100.00
39443;BME280;25147;52.142;9.960;2023-08-24T08:35:54;100602.00;;;19.14;100.00
39443;BME280;25147;52.142;9.960;2023-08-24T08:38:24;100704.59;;;19.71;100.00
39443;BME280;25147;52.142;9.960;2023-08-24T08:40:54;100536.78;;;18.72;100.00
39443;BME280;25147;52.142;9.960;2023-08-24T08:43:26;100461.75;;;18.15;100.00
39443;BME280;25147;52.142;9.960;2023-08-24T08:45:55;100615.84;;;19.02;100.00
39443;BME280;25147;52.142;9.960;2023-08-24T08:48:23;100566.03;;;18.71;100.00
39443;BME280;25147;52.142;9.960;2023-08-24T08:50:52;100473.41;;;18.30;100.00
39443;BME280;25147;52.142;9.960;2023-08-24T08:53:22;100617.84;;;19.16;100.00
39443;BME280;25147;52.142;9.960;2023-08-24T08:55:51;100688.28;;;19.59;100.00
39443;BME280;25147;52.142;9.960;2023-08-24T08:58:18;100472.84;;;18.42;100.00
39443;BME280;25147;52.142;9.960;2023-08-24T09:00:49;100721.72;;;19.82;100.00
39443;BME280;25147;52.142;9.960;2023-08-24T09:03:21;100522.94;;;18.84;100.00
39443;BME280;25147;52.142;9.960;2023-08-24T09:05:49;100616.28;;;19.29;100.00
39443;BME280;25147;52.142;9.960;2023-08-24T09:08:18;100600.84;;;19.37;100.00
39443;BME280;25147;52.142;9.960;2023-08-24T09:10:45;100665.59;;;19.71;100.00
39443;BME280;25147;52.142;9.960;2023-08-24T09:13:19;100435.78;;;18.40;100.00
39443;BME280;25147;52.142;9.960;2023-08-24T09:16:03;100548.53;;;19.22;100.00
39443;BME280;25147;52.142;9.960;2023-08-24T09:18:36;100460.03;;;18.69;99.87
39443;BME280;25147;52.142;9.960;2023-08-24T09:21:11;100432.72;;;18.67;98.69
39443;BME280;25147;52.142;9.960;2023-08-24T09:23:43;100539.41;;;19.45;97.61
39443;BME280;25147;52.142;9.960;2023-08-24T09:26:11;100529.16;;;19.55;98.92
39443;BME280;25147;52.142;9.960;2023-08-24T09:28:42;100431.34;;;18.95;99.00
39443;BME280;25147;52.142;9.960;2023-08-24T09:31:18;100683.22;;;20.75;98.62
39443;BME280;25147;52.142;9.960;2023-08-24T09:33:49;100450.13;;;19.42;97.15
39443;BME280;25147;52.142;9.960;2023-08-24T09:36:21;100658.25;;;20.78;96.25
39443;BME280;25147;52.142;9.960;2023-08-24T09:38:55;100675.69;;;20.99;94.95
39443;BME280;25147;52.142;9.960;2023-08-24T09:41:38;100404.63;;;19.33;94.68
39443;BME280;25147;52.142;9.960;2023-08-24T09:44:06;100699.81;;;20.96;94.87
39443;BME280;25147;52.142;9.960;2023-08-24T09:46:37;100609.97;;;20.52;94.43
39443;BME280;25147;52.142;9.960;2023-08-24T09:49:09;100671.75;;;21.07;94.28
39443;BME280;25147;52.142;9.960;2023-08-24T09:51:39;100417.28;;;19.61;93.63
39443;BME280;25147;52.142;9.960;2023-08-24T09:54:16;100656.72;;;21.06;93.53
39443;BME280;25147;52.142;9.960;2023-08-24T09:57:06;100418.84;;;19.65;93.53
39443;BME280;25147;52.142;9.960;2023-08-24T09:59:47;100567.53;;;20.67;91.26
39443;BME280;25147;52.142;9.960;2023-08-24T10:02:33;100681.44;;;21.23;91.46
39443;BME280;25147;52.142;9.960;2023-08-24T10:05:22;100496.97;;;20.43;91.20
39443;BME280;25147;52.142;9.960;2023-08-24T10:07:56;100661.25;;;21.35;91.82
39443;BME280;25147;52.142;9.960;2023-08-24T10:10:29;100371.50;;;19.73;91.09
39443;BME280;25147;52.142;9.960;2023-08-24T10:13:14;100386.69;;;19.87;89.83
39443;BME280;25147;52.142;9.960;2023-08-24T10:15:56;100469.69;;;20.56;88.87
39443;BME280;25147;52.142;9.960;2023-08-24T10:18:40;100481.44;;;20.68;88.88
39443;BME280;25147;52.142;9.960;2023-08-24T10:21:13;100384.69;;;20.22;87.53
39443;BME280;25147;52.142;9.960;2023-08-24T10:24:08;100376.78;;;20.37;87.24
39443;BME280;25147;52.142;9.960;2023-08-24T10:26:43;100464.97;;;21.07;86.45
39443;BME280;25147;52.142;9.960;2023-08-24T10:29:13;100593.88;;;21.94;86.92
39443;BME280;25147;52.142;9.960;2023-08-24T10:31:42;100627.59;;;21.95;86.32
39443;BME280;25147;52.142;9.960;2023-08-24T10:34:17;100592.56;;;22.01;84.83
39443;BME280;25147;52.142;9.960;2023-08-24T10:39:27;100572.09;;;22.16;83.95
39443;BME280;25147;52.142;9.960;2023-08-24T10:42:01;100441.06;;;21.36;83.49
39443;BME280;25147;52.142;9.960;2023-08-24T10:44:36;100477.56;;;21.78;82.53
39443;BME280;25147;52.142;9.960;2023-08-24T10:47:15;100356.38;;;20.98;81.02
39443;BME280;25147;52.142;9.960;2023-08-24T10:49:57;100469.84;;;21.88;79.94
39443;BME280;25147;52.142;9.960;2023-08-24T10:52:25;100485.06;;;22.00;78.25
39443;BME280;25147;52.142;9.960;2023-08-24T10:54:53;100594.94;;;22.63;77.89
39443;BME280;25147;52.142;9.960;2023-08-24T10:57:24;100420.53;;;21.81;77.45
39443;BME280;25147;52.142;9.960;2023-08-24T11:00:02;100422.41;;;21.93;76.48
39443;BME280;25147;52.142;9.960;2023-08-24T11:02:41;100342.44;;;21.52;74.95
39443;BME280;25147;52.142;9.960;2023-08-24T11:05:16;100503.56;;;22.59;73.51
39443;BME280;25147;52.142;9.960;2023-08-24T11:07:51;100484.13;;;22.57;71.42
39443;BME280;25147;52.142;9.960;2023-08-24T11:10:19;100556.00;;;23.15;70.15
39443;BME280;25147;52.142;9.960;2023-08-24T11:13:07;100415.97;;;22.39;69.24
39443;BME280;25147;52.142;9.960;2023-08-24T11:15:38;100544.50;;;23.27;68.76
39443;BME280;25147;52.142;9.960;2023-08-24T11:18:27;100333.09;;;22.00;68.88
39443;BME280;25147;52.142;9.960;2023-08-24T11:21:16;100384.81;;;22.39;67.08
39443;BME280;25147;52.142;9.960;2023-08-24T11:24:02;100553.75;;;23.61;65.48
39443;BME280;25147;52.142;9.960;2023-08-24T11:26:29;100405.19;;;22.80;66.18
39443;BME280;25147;52.142;9.960;2023-08-24T11:29:04;100438.75;;;22.97;65.84
39443;BME280;25147;52.142;9.960;2023-08-24T11:31:33;100352.97;;;22.36;65.83
39443;BME280;25147;52.142;9.960;2023-08-24T11:34:01;100462.53;;;23.15;65.50
39443;BME280;25147;52.142;9.960;2023-08-24T11:36:28;100479.97;;;23.20;64.79
39443;BME280;25147;52.142;9.960;2023-08-24T11:38:57;100535.25;;;23.46;63.19
39443;BME280;25147;52.142;9.960;2023-08-24T11:41:27;100317.34;;;22.10;61.23
39443;BME280;25147;52.142;9.960;2023-08-24T11:44:01;100325.78;;;22.31;60.53
39443;BME280;25147;52.142;9.960;2023-08-24T11:46:32;100293.47;;;22.09;60.83
39443;BME280;25147;52.142;9.960;2023-08-24T11:49:14;100328.38;;;22.46;59.75
39443;BME280;25147;52.142;9.960;2023-08-24T11:51:42;100526.06;;;23.62;59.66
39443;BME280;25147;52.142;9.960;2023-08-24T11:54:25;100310.81;;;22.29;59.29
39443;BME280;25147;52.142;9.960;2023-08-24T11:57:14;100504.91;;;23.59;59.01
39443;BME280;25147;52.142;9.960;2023-08-24T12:02:24;100282.25;;;22.16;58.73
39443;BME280;25147;52.142;9.960;2023-08-24T12:04:59;100251.88;;;22.19;58.71
39443;BME280;25147;52.142;9.960;2023-08-24T12:07:29;100266.13;;;22.32;58.98
39443;BME280;25147;52.142;9.960;2023-08-24T12:10:00;100463.63;;;23.63;59.04
39443;BME280;25147;52.142;9.960;2023-08-24T12:12:38;100233.97;;;22.21;58.26
39443;BME280;25147;52.142;9.960;2023-08-24T12:15:35;100233.69;;;22.26;57.63
39443;BME280;25147;52.142;9.960;2023-08-24T12:21:26;100458.06;;;23.92;59.11
39443;BME280;25147;52.142;9.960;2023-08-24T12:24:06;100220.38;;;22.51;58.81
39443;BME280;25147;52.142;9.960;2023-08-24T12:26:39;100186.00;;;22.47;58.33
39443;BME280;25147;52.142;9.960;2023-08-24T12:29:10;100271.47;;;23.22;58.70
39443;BME280;25147;52.142;9.960;2023-08-24T12:31:42;100200.81;;;22.89;58.14
39443;BME280;25147;52.142;9.960;2023-08-24T12:34:10;100224.72;;;23.03;58.17
39443;BME280;25147;52.142;9.960;2023-08-24T12:39:14;100295.28;;;23.88;59.10
39443;BME280;25147;52.142;9.960;2023-08-24T12:41:42;100277.56;;;23.74;61.02
39443;BME280;25147;52.142;9.960;2023-08-24T12:44:09;100371.19;;;24.46;60.54
39443;BME280;25147;52.142;9.960;2023-08-24T12:46:37;100314.25;;;24.20;60.16
39443;BME280;25147;52.142;9.960;2023-08-24T12:49:04;100265.81;;;24.00;59.96
39443;BME280;25147;52.142;9.960;2023-08-24T12:51:31;100331.03;;;24.46;60.30
39443;BME280;25147;52.142;9.960;2023-08-24T12:53:58;100377.16;;;24.74;61.02
39443;BME280;25147;52.142;9.960;2023-08-24T12:56:35;100166.38;;;23.47;60.29
39443;BME280;25147;52.142;9.960;2023-08-24T12:59:05;100235.41;;;24.01;61.26
39443;BME280;25147;52.142;9.960;2023-08-24T13:01:34;100159.97;;;23.61;61.63
39443;BME280;25147;52.142;9.960;2023-08-24T13:04:03;100244.94;;;24.17;60.85
39443;BME280;25147;52.142;9.960;2023-08-24T13:09:21;100131.47;;;23.73;60.61
39443;BME280;25147;52.142;9.960;2023-08-24T13:11:59;100156.56;;;23.83;60.46
39443;BME280;25147;52.142;9.960;2023-08-24T13:14:37;100250.00;;;24.33;59.72